sensor_id;sensor_type;location;lat;lon;timestamp;pressure;altitude;pressure_sealevel;temperature;humidity
24031;BME280;12240;51.142;22.486;2022-12-05T00:02:02;100296.28;;;0.19;100.00
24031;BME280;12240;51.142;22.486;2022-12-05T00:04:31;100274.16;;;0.06;100.00
24031;BME280;12240;51.142;22.486;2022-12-05T00:06:59;100302.50;;;0.17;100.00
24031;BME280;12240;51.142;22.486;2022-12-05T00:09:31;100287.69;;;0.16;100.00
24031;BME280;12240;51.142;22.486;2022-12-05T00:12:02;100168.94;;;-0.62;100.00
24031;BME280;12240;51.142;22.486;2022-12-05T00:14:33;100301.66;;;0.16;100.00
24031;BME280;12240;51.142;22.486;2022-12-05T00:17:01;100301.50;;;0.19;100.00
24031;BME280;12240;51.142;22.486;2022-12-05T00:19:33;100299.75;;;0.20;100.00
24031;BME280;12240;51.142;22.486;2022-12-05T00:22:03;100272.34;;;0.08;100.00
24031;BME280;12240;51.142;22.486;2022-12-05T00:24:31;100295.38;;;0.20;100.00
24031;BME280;12240;51.142;22.486;2022-12-05T00:26:59;100299.53;;;0.24;100.00
24031;BME280;12240;51.142;22.486;2022-12-05T00:29:28;100233.19;;;-0.15;100.00
24031;BME280;12240;51.142;22.486;2022-12-05T00:31:58;100259.91;;;-0.07;100.00
24031;BME280;12240;51.142;22.486;2022-12-05T00:34:29;100257.28;;;-0.07;100.00
24031;BME280;12240;51.142;22.486;2022-12-05T00:37:07;100290.44;;;0.13;100.00
24031;BME280;12240;51.142;22.486;2022-12-05T00:39:38;100199.53;;;-0.44;100.00
24031;BME280;12240;51.142;22.486;2022-12-05T00:42:10;100161.97;;;-0.63;100.00
24031;BME280;12240;51.142;22.486;2022-12-05T00:44:48;100110.84;;;-0.90;100.00
24031;BME280;12240;51.142;22.486;2022-12-05T00:47:29;100219.72;;;-0.26;100.00
24031;BME280;12240;51.142;22.486;2022-12-05T00:50:03;100234.63;;;-0.28;100.00
24031;BME280;12240;51.142;22.486;2022-12-05T00:52:40;100179.97;;;-0.56;100.00
24031;BME280;12240;51.142;22.486;2022-12-05T00:55:13;100292.69;;;0.22;100.00
24031;BME280;12240;51.142;22.486;2022-12-05T00:57:45;100277.94;;;0.19;100.00
24031;BME280;12240;51.142;22.486;2022-12-05T01:00:25;100091.00;;;-0.96;100.00
24031;BME280;12240;51.142;22.486;2022-12-05T01:03:01;100167.41;;;-0.48;100.00
24031;BME280;12240;51.142;22.486;2022-12-05T01:05:38;100182.94;;;-0.43;100.00
24031;BME280;12240;51.142;22.486;2022-12-05T01:08:39;100082.38;;;-0.98;100.00
24031;BME280;12240;51.142;22.486;2022-12-05T01:11:19;100162.25;;;-0.49;100.00
24031;BME280;12240;51.142;22.486;2022-12-05T01:14:04;100187.00;;;-0.36;100.00
24031;BME280;12240;51.142;22.486;2022-12-05T01:16:44;100204.81;;;-0.24;100.00
24031;BME280;12240;51.142;22.486;2022-12-05T01:19:29;100088.31;;;-0.93;100.00
24031;BME280;12240;51.142;22.486;2022-12-05T01:21:58;100236.78;;;0.03;100.00
24031;BME280;12240;51.142;22.486;2022-12-05T01:24:36;100177.88;;;-0.48;100.00
24031;BME280;12240;51.142;22.486;2022-12-05T01:27:08;100180.03;;;-0.37;100.00
24031;BME280;12240;51.142;22.486;2022-12-05T01:29:41;100205.31;;;-0.16;100.00
24031;BME280;12240;51.142;22.486;2022-12-05T01:32:12;100242.59;;;-0.11;100.00
24031;BME280;12240;51.142;22.486;2022-12-05T01:34:43;100245.75;;;-0.03;100.00
24031;BME280;12240;51.142;22.486;2022-12-05T01:37:16;100147.28;;;-0.66;100.00
24031;BME280;12240;51.142;22.486;2022-12-05T01:39:47;100286.59;;;0.21;100.00
24031;BME280;12240;51.142;22.486;2022-12-05T01:42:15;100282.28;;;0.20;100.00
24031;BME280;12240;51.142;22.486;2022-12-05T01:45:06;100275.31;;;0.19;100.00
24031;BME280;12240;51.142;22.486;2022-12-05T01:47:42;100281.63;;;0.15;100.00
24031;BME280;12240;51.142;22.486;2022-12-05T01:50:12;100269.44;;;0.14;100.00
24031;BME280;12240;51.142;22.486;2022-12-05T01:52:40;100282.41;;;0.17;100.00
24031;BME280;12240;51.142;22.486;2022-12-05T01:55:12;100243.84;;;0.00;100.00
24031;BME280;12240;51.142;22.486;2022-12-05T01:57:59;100072.66;;;-0.94;100.00
24031;BME280;12240;51.142;22.486;2022-12-05T02:00:28;100180.63;;;-0.31;100.00
24031;BME280;12240;51.142;22.486;2022-12-05T02:03:03;100261.34;;;0.20;100.00
24031;BME280;12240;51.142;22.486;2022-12-05T02:05:35;100229.22;;;-0.04;100.00
24031;BME280;12240;51.142;22.486;2022-12-05T02:08:08;100266.81;;;0.14;100.00
24031;BME280;12240;51.142;22.486;2022-12-05T02:10:48;100247.31;;;0.01;100.00
24031;BME280;12240;51.142;22.486;2022-12-05T02:13:47;100251.25;;;0.11;100.00
24031;BME280;12240;51.142;22.486;2022-12-05T02:31:15;100245.88;;;0.14;100.00
24031;BME280;12240;51.142;22.486;2022-12-05T02:34:22;100225.19;;;0.08;100.00
24031;BME280;12240;51.142;22.486;2022-12-05T02:37:15;100187.78;;;-0.14;100.00
24031;BME280;12240;51.142;22.486;2022-12-05T02:40:03;100213.72;;;0.11;100.00
24031;BME280;12240;51.142;22.486;2022-12-05T02:42:56;100124.53;;;-0.44;100.00
24031;BME280;12240;51.142;22.486;2022-12-05T02:45:39;100123.16;;;-0.52;100.00
24031;BME280;12240;51.142;22.486;2022-12-05T02:48:15;100210.03;;;-0.04;100.00
24031;BME280;12240;51.142;22.486;2022-12-05T02:50:46;100220.47;;;0.16;100.00
24031;BME280;12240;51.142;22.486;2022-12-05T02:53:16;100198.91;;;-0.09;100.00
24031;BME280;12240;51.142;22.486;2022-12-05T02:55:55;100217.53;;;0.03;100.00
24031;BME280;12240;51.142;22.486;2022-12-05T02:58:32;100214.59;;;0.11;100.00
24031;BME280;12240;51.142;22.486;2022-12-05T03:01:01;100208.63;;;0.08;100.00
24031;BME280;12240;51.142;22.486;2022-12-05T03:03:32;100169.06;;;-0.25;100.00
24031;BME280;12240;51.142;22.486;2022-12-05T03:06:11;100207.97;;;0.03;100.00
24031;BME280;12240;51.142;22.486;2022-12-05T03:09:13;100213.28;;;0.01;100.00
24031;BME280;12240;51.142;22.486;2022-12-05T03:11:46;100184.88;;;-0.08;100.00
24031;BME280;12240;51.142;22.486;2022-12-05T03:14:23;100173.03;;;-0.17;100.00
24031;BME280;12240;51.142;22.486;2022-12-05T03:17:01;100177.16;;;-0.11;100.00
24031;BME280;12240;51.142;22.486;2022-12-05T03:20:06;100200.19;;;0.01;100.00
24031;BME280;12240;51.142;22.486;2022-12-05T03:22:45;100174.75;;;-0.16;100.00
24031;BME280;12240;51.142;22.486;2022-12-05T03:25:16;100186.59;;;-0.07;100.00
24031;BME280;12240;51.142;22.486;2022-12-05T03:28:27;100146.22;;;-0.22;100.00
24031;BME280;12240;51.142;22.486;2022-12-05T03:31:01;100180.69;;;0.08;100.00
24031;BME280;12240;51.142;22.486;2022-12-05T03:33:41;100175.78;;;0.00;100.00
24031;BME280;12240;51.142;22.486;2022-12-05T03:36:17;100182.00;;;-0.02;100.00
24031;BME280;12240;51.142;22.486;2022-12-05T03:39:20;100175.72;;;0.02;100.00
24031;BME280;12240;51.142;22.486;2022-12-05T03:44:50;100182.72;;;0.02;100.00
24031;BME280;12240;51.142;22.486;2022-12-05T03:47:26;100179.50;;;-0.05;100.00
24031;BME280;12240;51.142;22.486;2022-12-05T03:50:09;100181.88;;;0.01;100.00
24031;BME280;12240;51.142;22.486;2022-12-05T03:52:45;100188.78;;;0.02;100.00
24031;BME280;12240;51.142;22.486;2022-12-05T03:55:38;100175.06;;;-0.03;100.00
24031;BME280;12240;51.142;22.486;2022-12-05T03:58:12;100193.72;;;0.10;100.00
24031;BME280;12240;51.142;22.486;2022-12-05T04:00:45;100180.88;;;0.03;100.00
24031;BME280;12240;51.142;22.486;2022-12-05T04:03:23;100155.31;;;-0.30;100.00
24031;BME280;12240;51.142;22.486;2022-12-05T04:06:55;100189.94;;;-0.04;100.00
24031;BME280;12240;51.142;22.486;2022-12-05T04:09:18;100198.63;;;-0.03;100.00
24031;BME280;12240;51.142;22.486;2022-12-05T04:11:56;100139.38;;;-0.24;100.00
24031;BME280;12240;51.142;22.486;2022-12-05T04:14:52;100132.06;;;-0.36;100.00
24031;BME280;12240;51.142;22.486;2022-12-05T04:17:51;100194.03;;;0.02;100.00
24031;BME280;12240;51.142;22.486;2022-12-05T04:20:34;100205.28;;;0.04;100.00
24031;BME280;12240;51.142;22.486;2022-12-05T04:23:25;100198.31;;;0.05;100.00
24031;BME280;12240;51.142;22.486;2022-12-05T04:26:18;100100.78;;;-0.59;100.00
24031;BME280;12240;51.142;22.486;2022-12-05T04:28:56;100174.69;;;-0.14;100.00
24031;BME280;12240;51.142;22.486;2022-12-05T04:31:37;100197.38;;;0.06;100.00
24031;BME280;12240;51.142;22.486;2022-12-05T04:34:12;100130.91;;;-0.31;100.00
24031;BME280;12240;51.142;22.486;2022-12-05T04:36:50;100189.94;;;-0.04;100.00
24031;BME280;12240;51.142;22.486;2022-12-05T04:39:40;100207.13;;;0.02;100.00
24031;BME280;12240;51.142;22.486;2022-12-05T04:42:22;100179.56;;;-0.07;100.00
24031;BME280;12240;51.142;22.486;2022-12-05T04:45:01;100196.53;;;0.05;100.00
24031;BME280;12240;51.142;22.486;2022-12-05T04:47:40;100154.16;;;-0.23;100.00
24031;BME280;12240;51.142;22.486;2022-12-05T04:50:12;100181.38;;;-0.07;100.00
24031;BME280;12240;51.142;22.486;2022-12-05T04:52:45;100182.97;;;-0.05;100.00
24031;BME280;12240;51.142;22.486;2022-12-05T04:55:20;100179.47;;;-0.04;100.00
24031;BME280;12240;51.142;22.486;2022-12-05T04:58:21;100188.94;;;-0.01;100.00
24031;BME280;12240;51.142;22.486;2022-12-05T05:01:18;100187.34;;;-0.05;100.00
24031;BME280;12240;51.142;22.486;2022-12-05T05:04:06;100089.69;;;-0.64;100.00
24031;BME280;12240;51.142;22.486;2022-12-05T05:06:39;100190.69;;;-0.02;100.00
24031;BME280;12240;51.142;22.486;2022-12-05T05:09:08;100170.09;;;-0.09;100.00
24031;BME280;12240;51.142;22.486;2022-12-05T05:11:37;100144.22;;;-0.35;100.00
24031;BME280;12240;51.142;22.486;2022-12-05T05:14:05;100191.63;;;-0.03;100.00
24031;BME280;12240;51.142;22.486;2022-12-05T05:16:40;100140.34;;;-0.27;100.00
24031;BME280;12240;51.142;22.486;2022-12-05T05:19:10;100110.44;;;-0.41;100.00
24031;BME280;12240;51.142;22.486;2022-12-05T05:21:41;100194.91;;;0.03;100.00
24031;BME280;12240;51.142;22.486;2022-12-05T05:24:11;100191.16;;;0.08;100.00
24031;BME280;12240;51.142;22.486;2022-12-05T05:26:46;100159.09;;;-0.17;100.00
24031;BME280;12240;51.142;22.486;2022-12-05T05:29:22;100101.69;;;-0.40;100.00
24031;BME280;12240;51.142;22.486;2022-12-05T05:31:50;100125.91;;;-0.35;100.00
24031;BME280;12240;51.142;22.486;2022-12-05T05:34:18;100183.06;;;-0.06;100.00
24031;BME280;12240;51.142;22.486;2022-12-05T05:36:51;100159.88;;;-0.15;100.00
24031;BME280;12240;51.142;22.486;2022-12-05T05:39:19;100161.25;;;-0.07;100.00
24031;BME280;12240;51.142;22.486;2022-12-05T05:41:50;100158.72;;;-0.08;100.00
24031;BME280;12240;51.142;22.486;2022-12-05T05:44:21;100029.13;;;-0.75;100.00
24031;BME280;12240;51.142;22.486;2022-12-05T05:46:51;100148.06;;;-0.04;100.00
24031;BME280;12240;51.142;22.486;2022-12-05T05:49:19;100130.31;;;-0.17;100.00
24031;BME280;12240;51.142;22.486;2022-12-05T05:51:48;100098.22;;;-0.41;100.00
24031;BME280;12240;51.142;22.486;2022-12-05T05:54:16;100108.75;;;-0.42;100.00
24031;BME280;12240;51.142;22.486;2022-12-05T05:56:44;100167.91;;;0.00;100.00
24031;BME280;12240;51.142;22.486;2022-12-05T05:59:15;100176.00;;;-0.04;100.00
24031;BME280;12240;51.142;22.486;2022-12-05T06:01:43;100165.44;;;-0.03;100.00
24031;BME280;12240;51.142;22.486;2022-12-05T06:04:11;100165.66;;;-0.07;100.00
24031;BME280;12240;51.142;22.486;2022-12-05T06:06:40;100167.09;;;0.00;100.00
24031;BME280;12240;51.142;22.486;2022-12-05T06:09:08;100102.81;;;-0.46;100.00
24031;BME280;12240;51.142;22.486;2022-12-05T06:11:35;100109.16;;;-0.31;100.00
24031;BME280;12240;51.142;22.486;2022-12-05T06:14:08;100133.84;;;-0.18;100.00
24031;BME280;12240;51.142;22.486;2022-12-05T06:16:36;100162.13;;;-0.06;100.00
24031;BME280;12240;51.142;22.486;2022-12-05T06:19:04;100132.28;;;-0.22;100.00
24031;BME280;12240;51.142;22.486;2022-12-05T06:21:32;100165.31;;;0.00;100.00
24031;BME280;12240;51.142;22.486;2022-12-05T06:24:00;100102.41;;;-0.37;100.00
24031;BME280;12240;51.142;22.486;2022-12-05T06:26:28;100162.91;;;-0.04;100.00
24031;BME280;12240;51.142;22.486;2022-12-05T06:29:01;100147.25;;;-0.06;100.00
24031;BME280;12240;51.142;22.486;2022-12-05T06:31:29;100178.22;;;0.05;100.00
24031;BME280;12240;51.142;22.486;2022-12-05T06:34:02;100189.50;;;0.06;100.00
24031;BME280;12240;51.142;22.486;2022-12-05T06:36:31;100180.84;;;0.05;100.00
24031;BME280;12240;51.142;22.486;2022-12-05T06:38:59;100193.00;;;0.06;100.00
24031;BME280;12240;51.142;22.486;2022-12-05T06:41:27;100162.31;;;-0.11;100.00
24031;BME280;12240;51.142;22.486;2022-12-05T06:43:57;100190.44;;;0.05;100.00
24031;BME280;12240;51.142;22.486;2022-12-05T06:46:29;100189.59;;;0.04;100.00
24031;BME280;12240;51.142;22.486;2022-12-05T06:48:58;100202.41;;;0.10;100.00
24031;BME280;12240;51.142;22.486;2022-12-05T06:51:28;100191.88;;;0.12;100.00
24031;BME280;12240;51.142;22.486;2022-12-05T06:54:04;100069.66;;;-0.65;100.00
24031;BME280;12240;51.142;22.486;2022-12-05T06:56:32;100078.94;;;-0.58;100.00
24031;BME280;12240;51.142;22.486;2022-12-05T06:59:00;100070.72;;;-0.69;100.00
24031;BME280;12240;51.142;22.486;2022-12-05T07:01:28;100195.47;;;0.09;100.00
24031;BME280;12240;51.142;22.486;2022-12-05T07:04:18;100162.19;;;-0.08;100.00
24031;BME280;12240;51.142;22.486;2022-12-05T07:06:47;100158.91;;;-0.13;100.00
24031;BME280;12240;51.142;22.486;2022-12-05T07:09:23;100195.31;;;0.12;100.00
24031;BME280;12240;51.142;22.486;2022-12-05T07:12:20;100190.81;;;0.16;100.00
24031;BME280;12240;51.142;22.486;2022-12-05T07:14:48;100149.09;;;-0.08;100.00
24031;BME280;12240;51.142;22.486;2022-12-05T07:17:21;100186.50;;;0.15;100.00
24031;BME280;12240;51.142;22.486;2022-12-05T07:19:50;100150.22;;;-0.13;100.00
24031;BME280;12240;51.142;22.486;2022-12-05T07:22:21;100190.03;;;0.14;100.00
24031;BME280;12240;51.142;22.486;2022-12-05T07:24:52;100186.63;;;0.12;100.00
24031;BME280;12240;51.142;22.486;2022-12-05T07:27:21;100115.09;;;-0.28;100.00
24031;BME280;12240;51.142;22.486;2022-12-05T07:29:55;100160.06;;;0.00;100.00
24031;BME280;12240;51.142;22.486;2022-12-05T07:32:24;100186.34;;;0.18;100.00
24031;BME280;12240;51.142;22.486;2022-12-05T07:34:52;100186.81;;;0.27;100.00
24031;BME280;12240;51.142;22.486;2022-12-05T07:37:22;100148.31;;;-0.10;100.00
24031;BME280;12240;51.142;22.486;2022-12-05T07:39:53;100184.44;;;0.21;100.00
24031;BME280;12240;51.142;22.486;2022-12-05T07:42:24;100188.66;;;0.25;100.00
24031;BME280;12240;51.142;22.486;2022-12-05T07:44:52;100153.56;;;0.09;100.00
24031;BME280;12240;51.142;22.486;2022-12-05T07:47:22;100166.66;;;0.09;100.00
24031;BME280;12240;51.142;22.486;2022-12-05T07:49:51;100156.25;;;0.08;100.00
24031;BME280;12240;51.142;22.486;2022-12-05T07:52:19;100179.53;;;0.34;100.00
24031;BME280;12240;51.142;22.486;2022-12-05T07:54:51;100200.56;;;0.32;100.00
24031;BME280;12240;51.142;22.486;2022-12-05T07:57:22;100198.56;;;0.37;100.00
24031;BME280;12240;51.142;22.486;2022-12-05T07:59:50;100210.94;;;0.34;100.00
24031;BME280;12240;51.142;22.486;2022-12-05T08:02:18;100119.25;;;-0.24;100.00
24031;BME280;12240;51.142;22.486;2022-12-05T08:04:50;100148.63;;;0.03;100.00
24031;BME280;12240;51.142;22.486;2022-12-05T08:07:18;100152.94;;;0.04;100.00
24031;BME280;12240;51.142;22.486;2022-12-05T08:09:46;100184.97;;;0.29;100.00
24031;BME280;12240;51.142;22.486;2022-12-05T08:12:19;100185.16;;;0.25;100.00
24031;BME280;12240;51.142;22.486;2022-12-05T08:14:49;100192.84;;;0.29;100.00
24031;BME280;12240;51.142;22.486;2022-12-05T08:17:17;100159.75;;;0.08;100.00
24031;BME280;12240;51.142;22.486;2022-12-05T08:19:46;100067.38;;;-0.53;100.00
24031;BME280;12240;51.142;22.486;2022-12-05T08:22:14;100182.69;;;0.22;100.00
24031;BME280;12240;51.142;22.486;2022-12-05T08:24:43;100181.50;;;0.29;100.00
24031;BME280;12240;51.142;22.486;2022-12-05T08:27:11;100194.94;;;0.40;100.00
24031;BME280;12240;51.142;22.486;2022-12-05T08:29:39;100201.59;;;0.47;100.00
24031;BME280;12240;51.142;22.486;2022-12-05T08:32:09;100159.97;;;0.22;100.00
24031;BME280;12240;51.142;22.486;2022-12-05T08:34:37;100180.94;;;0.41;100.00
24031;BME280;12240;51.142;22.486;2022-12-05T08:37:05;100139.13;;;0.19;100.00
24031;BME280;12240;51.142;22.486;2022-12-05T08:39:36;100145.09;;;0.23;100.00
24031;BME280;12240;51.142;22.486;2022-12-05T08:42:15;100192.47;;;0.55;100.00
24031;BME280;12240;51.142;22.486;2022-12-05T08:44:43;100161.41;;;0.29;100.00
24031;BME280;12240;51.142;22.486;2022-12-05T08:47:14;100176.03;;;0.33;100.00
24031;BME280;12240;51.142;22.486;2022-12-05T08:49:44;100116.34;;;0.03;100.00
24031;BME280;12240;51.142;22.486;2022-12-05T08:52:15;99985.22;;;-0.67;100.00
24031;BME280;12240;51.142;22.486;2022-12-05T08:55:05;100001.13;;;-0.53;100.00
24031;BME280;12240;51.142;22.486;2022-12-05T08:57:43;100116.78;;;0.12;100.00
24031;BME280;12240;51.142;22.486;2022-12-05T09:00:24;100138.03;;;0.25;100.00
24031;BME280;12240;51.142;22.486;2022-12-05T09:02:52;100112.78;;;0.03;100.00
24031;BME280;12240;51.142;22.486;2022-12-05T09:05:51;100093.00;;;-0.02;100.00
24031;BME280;12240;51.142;22.486;2022-12-05T09:08:22;100094.44;;;0.05;100.00
24031;BME280;12240;51.142;22.486;2022-12-05T09:11:23;100096.25;;;0.03;100.00
24031;BME280;12240;51.142;22.486;2022-12-05T09:14:04;100000.44;;;-0.38;100.00
24031;BME280;12240;51.142;22.486;2022-12-05T09:16:47;100098.41;;;0.14;100.00
24031;BME280;12240;51.142;22.486;2022-12-05T09:19:35;100115.66;;;0.36;100.00
24031;BME280;12240;51.142;22.486;2022-12-05T09:22:18;100049.91;;;0.05;100.00
24031;BME280;12240;51.142;22.486;2022-12-05T09:25:06;99973.84;;;-0.29;100.00
24031;BME280;12240;51.142;22.486;2022-12-05T09:27:47;100020.91;;;-0.09;100.00
24031;BME280;12240;51.142;22.486;2022-12-05T09:30:29;100098.09;;;0.38;100.00
24031;BME280;12240;51.142;22.486;2022-12-05T09:33:03;100109.56;;;0.54;100.00
24031;BME280;12240;51.142;22.486;2022-12-05T09:35:39;100062.00;;;0.08;100.00
24031;BME280;12240;51.142;22.486;2022-12-05T09:38:21;100048.00;;;0.09;100.00
24031;BME280;12240;51.142;22.486;2022-12-05T09:44:05;100041.34;;;0.20;100.00
24031;BME280;12240;51.142;22.486;2022-12-05T09:47:02;100028.75;;;0.10;100.00
24031;BME280;12240;51.142;22.486;2022-12-05T09:56:31;100132.38;;;1.24;100.00
24031;BME280;12240;51.142;22.486;2022-12-05T09:59:00;99992.25;;;0.42;100.00
24031;BME280;12240;51.142;22.486;2022-12-05T10:04:54;100111.84;;;1.49;100.00
24031;BME280;12240;51.142;22.486;2022-12-05T10:10:58;99954.00;;;0.38;100.00
24031;BME280;12240;51.142;22.486;2022-12-05T10:14:01;100109.13;;;1.67;100.00
24031;BME280;12240;51.142;22.486;2022-12-05T10:16:53;100109.03;;;1.69;100.00
24031;BME280;12240;51.142;22.486;2022-12-05T10:19:41;100101.56;;;1.61;100.00
24031;BME280;12240;51.142;22.486;2022-12-05T10:22:48;100111.47;;;1.56;100.00
24031;BME280;12240;51.142;22.486;2022-12-05T10:25:20;100075.03;;;1.33;100.00
24031;BME280;12240;51.142;22.486;2022-12-05T10:28:00;100090.56;;;1.55;100.00
24031;BME280;12240;51.142;22.486;2022-12-05T10:30:33;100098.69;;;1.66;100.00
24031;BME280;12240;51.142;22.486;2022-12-05T10:33:20;100080.53;;;1.46;100.00
24031;BME280;12240;51.142;22.486;2022-12-05T10:35:49;100094.94;;;1.54;100.00
24031;BME280;12240;51.142;22.486;2022-12-05T10:38:28;100073.72;;;1.42;100.00
24031;BME280;12240;51.142;22.486;2022-12-05T10:41:03;100103.56;;;1.73;100.00
24031;BME280;12240;51.142;22.486;2022-12-05T10:43:36;100047.03;;;1.34;100.00
24031;BME280;12240;51.142;22.486;2022-12-05T10:46:14;100078.03;;;1.60;100.00
24031;BME280;12240;51.142;22.486;2022-12-05T10:48:47;100087.56;;;1.78;100.00
24031;BME280;12240;51.142;22.486;2022-12-05T10:51:19;100076.84;;;1.65;100.00
24031;BME280;12240;51.142;22.486;2022-12-05T10:53:50;99997.81;;;1.22;100.00
24031;BME280;12240;51.142;22.486;2022-12-05T10:56:46;100078.19;;;1.57;100.00
24031;BME280;12240;51.142;22.486;2022-12-05T10:59:25;100047.44;;;1.59;100.00
24031;BME280;12240;51.142;22.486;2022-12-05T11:01:57;100081.97;;;1.68;100.00
24031;BME280;12240;51.142;22.486;2022-12-05T11:04:45;100040.91;;;1.50;100.00
24031;BME280;12240;51.142;22.486;2022-12-05T11:07:43;100066.03;;;1.71;100.00
24031;BME280;12240;51.142;22.486;2022-12-05T11:10:30;100064.75;;;1.63;100.00
24031;BME280;12240;51.142;22.486;2022-12-05T11:13:00;100047.41;;;1.43;100.00
24031;BME280;12240;51.142;22.486;2022-12-05T11:15:30;100024.91;;;1.22;100.00
24031;BME280;12240;51.142;22.486;2022-12-05T11:18:37;100053.66;;;1.41;100.00
24031;BME280;12240;51.142;22.486;2022-12-05T11:21:11;100063.00;;;1.46;100.00
24031;BME280;12240;51.142;22.486;2022-12-05T11:23:40;100032.19;;;1.33;100.00
24031;BME280;12240;51.142;22.486;2022-12-05T11:26:40;100046.94;;;1.52;100.00
24031;BME280;12240;51.142;22.486;2022-12-05T11:29:38;100052.47;;;1.63;100.00
24031;BME280;12240;51.142;22.486;2022-12-05T11:32:20;100023.00;;;1.58;100.00
24031;BME280;12240;51.142;22.486;2022-12-05T11:35:03;100049.53;;;1.69;100.00
24031;BME280;12240;51.142;22.486;2022-12-05T11:37:56;100038.38;;;1.49;100.00
24031;BME280;12240;51.142;22.486;2022-12-05T12:06:02;100005.91;;;1.67;100.00
24031;BME280;12240;51.142;22.486;2022-12-05T12:15:00;99998.44;;;1.59;100.00
24031;BME280;12240;51.142;22.486;2022-12-05T12:23:39;99986.19;;;1.60;100.00
24031;BME280;12240;51.142;22.486;2022-12-05T12:26:33;99995.91;;;1.58;100.00
24031;BME280;12240;51.142;22.486;2022-12-05T12:38:16;99973.28;;;1.55;100.00
24031;BME280;12240;51.142;22.486;2022-12-05T12:46:56;99958.47;;;1.54;100.00
24031;BME280;12240;51.142;22.486;2022-12-05T12:52:26;99952.88;;;1.60;100.00
24031;BME280;12240;51.142;22.486;2022-12-05T12:55:21;99964.06;;;1.64;100.00
24031;BME280;12240;51.142;22.486;2022-12-05T12:58:01;99949.50;;;1.58;100.00
24031;BME280;12240;51.142;22.486;2022-12-05T13:03:32;99924.25;;;1.40;100.00
24031;BME280;12240;51.142;22.486;2022-12-05T13:06:17;99956.78;;;1.69;100.00
24031;BME280;12240;51.142;22.486;2022-12-05T13:09:20;99902.00;;;1.47;100.00
24031;BME280;12240;51.142;22.486;2022-12-05T13:12:01;99849.22;;;1.20;100.00
24031;BME280;12240;51.142;22.486;2022-12-05T13:14:36;99862.25;;;1.06;100.00
24031;BME280;12240;51.142;22.486;2022-12-05T13:17:18;99954.94;;;1.71;100.00
24031;BME280;12240;51.142;22.486;2022-12-05T13:19:52;99946.78;;;1.44;100.00
24031;BME280;12240;51.142;22.486;2022-12-05T13:22:26;99926.09;;;1.38;100.00
24031;BME280;12240;51.142;22.486;2022-12-05T13:24:59;99868.88;;;0.96;100.00
24031;BME280;12240;51.142;22.486;2022-12-05T13:27:27;99942.63;;;1.56;100.00
24031;BME280;12240;51.142;22.486;2022-12-05T13:30:01;99948.66;;;1.58;100.00
24031;BME280;12240;51.142;22.486;2022-12-05T13:32:43;99936.75;;;1.35;100.00
24031;BME280;12240;51.142;22.486;2022-12-05T13:35:29;99952.97;;;1.59;100.00
24031;BME280;12240;51.142;22.486;2022-12-05T13:38:33;99896.44;;;1.20;100.00
24031;BME280;12240;51.142;22.486;2022-12-05T13:41:42;99934.16;;;1.51;100.00
24031;BME280;12240;51.142;22.486;2022-12-05T13:44:35;99939.34;;;1.52;100.00
24031;BME280;12240;51.142;22.486;2022-12-05T13:47:06;99940.28;;;1.51;100.00
24031;BME280;12240;51.142;22.486;2022-12-05T13:49:53;99935.84;;;1.52;100.00
24031;BME280;12240;51.142;22.486;2022-12-05T13:52:29;99922.59;;;1.55;100.00
24031;BME280;12240;51.142;22.486;2022-12-05T13:55:35;99934.59;;;1.59;100.00
24031;BME280;12240;51.142;22.486;2022-12-05T14:00:46;99951.03;;;1.62;100.00
24031;BME280;12240;51.142;22.486;2022-12-05T14:06:00;99934.47;;;1.45;100.00
24031;BME280;12240;51.142;22.486;2022-12-05T14:11:08;99902.28;;;1.10;100.00
24031;BME280;12240;51.142;22.486;2022-12-05T14:13:41;99817.50;;;0.44;100.00
24031;BME280;12240;51.142;22.486;2022-12-05T14:19:29;99971.22;;;1.45;100.00
24031;BME280;12240;51.142;22.486;2022-12-05T14:33:39;99934.28;;;1.16;100.00
24031;BME280;12240;51.142;22.486;2022-12-05T14:36:15;99830.06;;;0.55;100.00
24031;BME280;12240;51.142;22.486;2022-12-05T14:38:46;99897.03;;;0.93;100.00
24031;BME280;12240;51.142;22.486;2022-12-05T14:41:31;99940.03;;;1.23;100.00
24031;BME280;12240;51.142;22.486;2022-12-05T14:44:01;99942.81;;;1.20;100.00
24031;BME280;12240;51.142;22.486;2022-12-05T14:46:35;99920.41;;;0.97;100.00
24031;BME280;12240;51.142;22.486;2022-12-05T14:49:52;99940.41;;;1.15;100.00
24031;BME280;12240;51.142;22.486;2022-12-05T14:52:25;99893.50;;;0.94;100.00
24031;BME280;12240;51.142;22.486;2022-12-05T14:55:01;99934.28;;;1.16;100.00
24031;BME280;12240;51.142;22.486;2022-12-05T14:57:31;99922.56;;;1.06;100.00
24031;BME280;12240;51.142;22.486;2022-12-05T15:00:06;99928.25;;;1.14;100.00
24031;BME280;12240;51.142;22.486;2022-12-05T15:02:41;99894.19;;;0.97;100.00
24031;BME280;12240;51.142;22.486;2022-12-05T15:05:31;99932.34;;;1.20;100.00
24031;BME280;12240;51.142;22.486;2022-12-05T15:08:02;99921.25;;;1.15;100.00
24031;BME280;12240;51.142;22.486;2022-12-05T15:10:34;99919.13;;;1.22;100.00
24031;BME280;12240;51.142;22.486;2022-12-05T15:13:13;99908.13;;;1.15;100.00
24031;BME280;12240;51.142;22.486;2022-12-05T15:15:49;99922.84;;;1.17;100.00
24031;BME280;12240;51.142;22.486;2022-12-05T15:18:41;99871.50;;;0.96;100.00
24031;BME280;12240;51.142;22.486;2022-12-05T15:21:37;99916.50;;;1.22;100.00
24031;BME280;12240;51.142;22.486;2022-12-05T15:24:18;99881.84;;;0.99;100.00
24031;BME280;12240;51.142;22.486;2022-12-05T15:26:53;99919.81;;;1.25;100.00